Dunbar, NE (68346)

8:42 AM CST on November 22, 2014 (GMT -0600)
Hawkins Home - Northeast | Change Station
CLOSE
Current Station
Personal Weather Station
Location: Syracuse, NE
Elevation: 1100 ft
Nearby Weather Stations

Elev 1100 ft 40.66 °N, 96.18 °W | Updated 0 second ago

Fog
Fog
38.9 °F
Feels Like 34 °F
N
7.4
Wind Variable Wind from SW
Gusts 7.4 mph

Today
High -- | Low -- °F
--% Chance of Precip.
Yesterday
High -- | Low -- °F
Precip. -- in
7:18 AM 5:01 PM
New Moon, 0% visible
Pressure 29.87 in
Visibility 1.2 miles
Clouds Overcast 200 ft
Windchill 34 °F
Dew Point 38 °F
Humidity 97%
Rainfall 0.00 in
Snow Depth Not available.
UV 0 out of 12
Pollen .10 out of 12
Air Quality Not available.
Flu Activity Not available.
METAR KAFK 221435Z AUTO 21012KT 1 1/4SM BR OVC002 05/05 A2987 RMK AO2 T00450045

More Conditions Fewer Conditions

Pressure 29.87 in
Visibility 1.2 miles
Clouds Overcast 200 ft
Windchill 34 °F
Dew Point 38 °F
Humidity 97%
Rainfall 0.00 in
Snow Depth Not available.
UV 0 out of 12
Pollen .10 out of 12
Air Quality Not available.
Flu Activity Not available.
METAR KAFK 221435Z AUTO 21012KT 1 1/4SM BR OVC002 05/05 A2987 RMK AO2 T00450045

More Conditions Fewer Conditions

10-Day Weather Forecast

Almanac

Astronomy

Nov. 22, 2014 Rise Set
Actual Time
Civil Twilight
Nautical Twilight
Astronomical Twilight
Moon
Length of Visible Light
Length of Day
Tomorrow will be .
, % of the Moon is Illuminated

Today's Extremes

State Highs State Lows

Community

WunderPhotos

Upload Photos

1,772,823 photos uploaded!

WunderBlogs® & News

Nearby

Air Quality

  Air Quality AQ Index Pollutant
Not available.

Snow Depth

Station Depth Elevation

Earthquake Activity

City Distance Mag. Time & Date
Minimum magnitude displayed is 2.5.

Coastal Water Temperatures

Place Temperature

Nearby Weather Stations